sensor_id;sensor_type;location;lat;lon;timestamp;temperature;humidity
30399;DHT22;17195;50.838;7.214;2023-04-16T00:01:05;8.30;99.90
30399;DHT22;17195;50.838;7.214;2023-04-16T00:03:30;8.30;99.90
30399;DHT22;17195;50.838;7.214;2023-04-16T00:05:56;8.30;99.90
30399;DHT22;17195;50.838;7.214;2023-04-16T00:08:22;8.40;99.90
30399;DHT22;17195;50.838;7.214;2023-04-16T00:10:52;8.40;99.90
30399;DHT22;17195;50.838;7.214;2023-04-16T00:13:17;8.40;99.90
30399;DHT22;17195;50.838;7.214;2023-04-16T00:15:43;8.40;99.90
30399;DHT22;17195;50.838;7.214;2023-04-16T00:18:09;8.40;99.90
30399;DHT22;17195;50.838;7.214;2023-04-16T00:20:34;8.50;99.90
30399;DHT22;17195;50.838;7.214;2023-04-16T00:23:00;8.40;99.90
30399;DHT22;17195;50.838;7.214;2023-04-16T00:25:25;8.40;99.90
30399;DHT22;17195;50.838;7.214;2023-04-16T00:27:51;8.40;99.90
30399;DHT22;17195;50.838;7.214;2023-04-16T00:30:16;8.40;99.90
30399;DHT22;17195;50.838;7.214;2023-04-16T00:32:42;8.30;99.90
30399;DHT22;17195;50.838;7.214;2023-04-16T00:35:08;8.30;99.90
30399;DHT22;17195;50.838;7.214;2023-04-16T00:37:33;8.30;99.90
30399;DHT22;17195;50.838;7.214;2023-04-16T00:39:59;8.30;99.90
30399;DHT22;17195;50.838;7.214;2023-04-16T00:42:25;8.30;99.90
30399;DHT22;17195;50.838;7.214;2023-04-16T00:44:51;8.20;99.90
30399;DHT22;17195;50.838;7.214;2023-04-16T00:47:18;8.30;99.90
30399;DHT22;17195;50.838;7.214;2023-04-16T00:49:44;8.20;99.90
30399;DHT22;17195;50.838;7.214;2023-04-16T00:52:10;8.20;99.90
30399;DHT22;17195;50.838;7.214;2023-04-16T00:54:36;8.30;99.90
30399;DHT22;17195;50.838;7.214;2023-04-16T00:57:01;8.30;99.90
30399;DHT22;17195;50.838;7.214;2023-04-16T00:59:28;8.30;99.90
30399;DHT22;17195;50.838;7.214;2023-04-16T01:01:54;8.20;99.90
30399;DHT22;17195;50.838;7.214;2023-04-16T01:04:19;8.20;99.90
30399;DHT22;17195;50.838;7.214;2023-04-16T01:06:45;8.20;99.90
30399;DHT22;17195;50.838;7.214;2023-04-16T01:09:10;8.20;99.90
30399;DHT22;17195;50.838;7.214;2023-04-16T01:11:36;8.20;99.90
30399;DHT22;17195;50.838;7.214;2023-04-16T01:14:02;8.20;99.90
30399;DHT22;17195;50.838;7.214;2023-04-16T01:16:28;8.30;99.90
30399;DHT22;17195;50.838;7.214;2023-04-16T01:18:53;8.30;99.90
30399;DHT22;17195;50.838;7.214;2023-04-16T01:21:19;8.30;99.90
30399;DHT22;17195;50.838;7.214;2023-04-16T01:23:44;8.30;99.90
30399;DHT22;17195;50.838;7.214;2023-04-16T01:26:10;8.30;99.90
30399;DHT22;17195;50.838;7.214;2023-04-16T01:28:36;8.30;99.90
30399;DHT22;17195;50.838;7.214;2023-04-16T01:31:01;8.30;99.90
30399;DHT22;17195;50.838;7.214;2023-04-16T01:33:27;8.30;99.90
30399;DHT22;17195;50.838;7.214;2023-04-16T01:35:52;8.30;99.90
30399;DHT22;17195;50.838;7.214;2023-04-16T01:38:18;8.40;99.90
30399;DHT22;17195;50.838;7.214;2023-04-16T01:40:43;8.40;99.90
30399;DHT22;17195;50.838;7.214;2023-04-16T01:43:09;8.40;99.90
30399;DHT22;17195;50.838;7.214;2023-04-16T01:45:35;8.40;99.90
30399;DHT22;17195;50.838;7.214;2023-04-16T01:48:00;8.40;99.90
30399;DHT22;17195;50.838;7.214;2023-04-16T01:50:27;8.40;99.90
30399;DHT22;17195;50.838;7.214;2023-04-16T01:52:53;8.40;99.90
30399;DHT22;17195;50.838;7.214;2023-04-16T01:55:19;8.50;99.90
30399;DHT22;17195;50.838;7.214;2023-04-16T01:57:45;8.50;99.90
30399;DHT22;17195;50.838;7.214;2023-04-16T02:00:10;8.50;99.90
30399;DHT22;17195;50.838;7.214;2023-04-16T02:02:36;8.50;99.90
30399;DHT22;17195;50.838;7.214;2023-04-16T02:05:02;8.40;99.90
30399;DHT22;17195;50.838;7.214;2023-04-16T02:07:27;8.50;99.90
30399;DHT22;17195;50.838;7.214;2023-04-16T02:09:53;8.50;99.90
30399;DHT22;17195;50.838;7.214;2023-04-16T02:12:18;8.40;99.90
30399;DHT22;17195;50.838;7.214;2023-04-16T02:14:44;8.40;99.90
30399;DHT22;17195;50.838;7.214;2023-04-16T02:17:10;8.40;99.90
30399;DHT22;17195;50.838;7.214;2023-04-16T02:19:36;8.30;99.90
30399;DHT22;17195;50.838;7.214;2023-04-16T02:22:02;8.40;99.90
30399;DHT22;17195;50.838;7.214;2023-04-16T02:24:27;8.40;99.90
30399;DHT22;17195;50.838;7.214;2023-04-16T02:26:53;8.40;99.90
30399;DHT22;17195;50.838;7.214;2023-04-16T02:29:19;8.40;99.90
30399;DHT22;17195;50.838;7.214;2023-04-16T02:31:45;8.40;99.90
30399;DHT22;17195;50.838;7.214;2023-04-16T02:34:11;8.40;99.90
30399;DHT22;17195;50.838;7.214;2023-04-16T02:36:37;8.40;99.90
30399;DHT22;17195;50.838;7.214;2023-04-16T02:39:02;8.40;99.90
30399;DHT22;17195;50.838;7.214;2023-04-16T02:41:28;8.30;99.90
30399;DHT22;17195;50.838;7.214;2023-04-16T02:43:54;8.40;99.90
30399;DHT22;17195;50.838;7.214;2023-04-16T02:46:20;8.40;99.90
30399;DHT22;17195;50.838;7.214;2023-04-16T02:48:46;8.40;99.90
30399;DHT22;17195;50.838;7.214;2023-04-16T02:51:11;8.40;99.90
30399;DHT22;17195;50.838;7.214;2023-04-16T02:53:37;8.40;99.90
30399;DHT22;17195;50.838;7.214;2023-04-16T02:56:02;8.40;99.90
30399;DHT22;17195;50.838;7.214;2023-04-16T02:58:28;8.50;99.90
30399;DHT22;17195;50.838;7.214;2023-04-16T03:00:54;8.50;99.90
30399;DHT22;17195;50.838;7.214;2023-04-16T03:03:19;8.50;99.90
30399;DHT22;17195;50.838;7.214;2023-04-16T03:05:45;8.50;99.90
30399;DHT22;17195;50.838;7.214;2023-04-16T03:08:11;8.50;99.90
30399;DHT22;17195;50.838;7.214;2023-04-16T03:10:36;8.50;99.90
30399;DHT22;17195;50.838;7.214;2023-04-16T03:13:02;8.50;99.90
30399;DHT22;17195;50.838;7.214;2023-04-16T03:15:28;8.50;99.90
30399;DHT22;17195;50.838;7.214;2023-04-16T03:17:54;8.50;99.90
30399;DHT22;17195;50.838;7.214;2023-04-16T03:20:19;8.50;99.90
30399;DHT22;17195;50.838;7.214;2023-04-16T03:22:46;8.50;99.90
30399;DHT22;17195;50.838;7.214;2023-04-16T03:25:11;8.50;99.90
30399;DHT22;17195;50.838;7.214;2023-04-16T03:27:37;8.50;99.90
30399;DHT22;17195;50.838;7.214;2023-04-16T03:30:12;8.50;99.90
30399;DHT22;17195;50.838;7.214;2023-04-16T03:32:38;8.50;99.90
30399;DHT22;17195;50.838;7.214;2023-04-16T03:35:05;8.50;99.90
30399;DHT22;17195;50.838;7.214;2023-04-16T03:37:31;8.50;99.90
30399;DHT22;17195;50.838;7.214;2023-04-16T03:39:57;8.50;99.90
30399;DHT22;17195;50.838;7.214;2023-04-16T03:42:23;8.50;99.90
30399;DHT22;17195;50.838;7.214;2023-04-16T03:44:48;8.50;99.90
30399;DHT22;17195;50.838;7.214;2023-04-16T03:47:14;8.50;99.90
30399;DHT22;17195;50.838;7.214;2023-04-16T03:49:39;8.40;99.90
30399;DHT22;17195;50.838;7.214;2023-04-16T03:52:05;8.50;99.90
30399;DHT22;17195;50.838;7.214;2023-04-16T03:54:31;8.50;99.90
30399;DHT22;17195;50.838;7.214;2023-04-16T03:56:56;8.40;99.90
30399;DHT22;17195;50.838;7.214;2023-04-16T03:59:22;8.40;99.90
30399;DHT22;17195;50.838;7.214;2023-04-16T04:01:47;8.40;99.90
30399;DHT22;17195;50.838;7.214;2023-04-16T04:04:13;8.40;99.90
30399;DHT22;17195;50.838;7.214;2023-04-16T04:06:39;8.40;99.90
30399;DHT22;17195;50.838;7.214;2023-04-16T04:09:05;8.40;99.90
30399;DHT22;17195;50.838;7.214;2023-04-16T04:11:30;8.30;99.90
30399;DHT22;17195;50.838;7.214;2023-04-16T04:13:56;8.30;99.90
30399;DHT22;17195;50.838;7.214;2023-04-16T04:16:22;8.30;99.90
30399;DHT22;17195;50.838;7.214;2023-04-16T04:18:47;8.30;99.90
30399;DHT22;17195;50.838;7.214;2023-04-16T04:21:13;8.20;99.90
30399;DHT22;17195;50.838;7.214;2023-04-16T04:23:38;8.30;99.90
30399;DHT22;17195;50.838;7.214;2023-04-16T04:26:06;8.20;99.90
30399;DHT22;17195;50.838;7.214;2023-04-16T04:28:32;8.20;99.90
30399;DHT22;17195;50.838;7.214;2023-04-16T04:30:58;8.20;99.90
30399;DHT22;17195;50.838;7.214;2023-04-16T04:33:24;8.20;99.90
30399;DHT22;17195;50.838;7.214;2023-04-16T04:35:50;8.20;99.90
30399;DHT22;17195;50.838;7.214;2023-04-16T04:38:16;8.20;99.90
30399;DHT22;17195;50.838;7.214;2023-04-16T04:40:47;8.20;99.90
30399;DHT22;17195;50.838;7.214;2023-04-16T04:43:12;8.20;99.90
30399;DHT22;17195;50.838;7.214;2023-04-16T04:45:38;8.30;99.90
30399;DHT22;17195;50.838;7.214;2023-04-16T04:48:03;8.30;99.90
30399;DHT22;17195;50.838;7.214;2023-04-16T04:50:29;8.30;99.90
30399;DHT22;17195;50.838;7.214;2023-04-16T04:52:54;8.30;99.90
30399;DHT22;17195;50.838;7.214;2023-04-16T04:55:20;8.30;99.90
30399;DHT22;17195;50.838;7.214;2023-04-16T04:57:48;8.30;99.90
30399;DHT22;17195;50.838;7.214;2023-04-16T05:00:13;8.30;99.90
30399;DHT22;17195;50.838;7.214;2023-04-16T05:02:39;8.30;99.90
30399;DHT22;17195;50.838;7.214;2023-04-16T05:05:05;8.40;99.90
30399;DHT22;17195;50.838;7.214;2023-04-16T05:07:30;8.40;99.90
30399;DHT22;17195;50.838;7.214;2023-04-16T05:09:56;8.50;99.90
30399;DHT22;17195;50.838;7.214;2023-04-16T05:12:22;8.40;99.90
30399;DHT22;17195;50.838;7.214;2023-04-16T05:14:47;8.40;99.90
30399;DHT22;17195;50.838;7.214;2023-04-16T05:17:13;8.50;99.90
30399;DHT22;17195;50.838;7.214;2023-04-16T05:19:38;8.50;99.90
30399;DHT22;17195;50.838;7.214;2023-04-16T05:22:04;8.40;99.90
30399;DHT22;17195;50.838;7.214;2023-04-16T05:24:30;8.50;99.90
30399;DHT22;17195;50.838;7.214;2023-04-16T05:26:56;8.50;99.90
30399;DHT22;17195;50.838;7.214;2023-04-16T05:29:22;8.50;99.90
30399;DHT22;17195;50.838;7.214;2023-04-16T05:31:48;8.50;99.90
30399;DHT22;17195;50.838;7.214;2023-04-16T05:34:14;8.40;99.90
30399;DHT22;17195;50.838;7.214;2023-04-16T05:36:39;8.50;99.90
30399;DHT22;17195;50.838;7.214;2023-04-16T05:39:05;8.50;99.90
30399;DHT22;17195;50.838;7.214;2023-04-16T05:41:32;8.50;99.90
30399;DHT22;17195;50.838;7.214;2023-04-16T05:43:58;8.50;99.90
30399;DHT22;17195;50.838;7.214;2023-04-16T05:46:23;8.50;99.90
30399;DHT22;17195;50.838;7.214;2023-04-16T05:48:49;8.60;99.90
30399;DHT22;17195;50.838;7.214;2023-04-16T05:51:15;8.60;99.90
30399;DHT22;17195;50.838;7.214;2023-04-16T05:53:40;8.70;99.90
30399;DHT22;17195;50.838;7.214;2023-04-16T05:56:07;8.70;99.90
30399;DHT22;17195;50.838;7.214;2023-04-16T05:58:33;8.70;99.90
30399;DHT22;17195;50.838;7.214;2023-04-16T06:00:59;8.80;99.90
30399;DHT22;17195;50.838;7.214;2023-04-16T06:03:25;8.80;99.90
30399;DHT22;17195;50.838;7.214;2023-04-16T06:05:51;8.80;99.90
30399;DHT22;17195;50.838;7.214;2023-04-16T06:08:16;8.80;99.90
30399;DHT22;17195;50.838;7.214;2023-04-16T06:10:42;8.80;99.90
30399;DHT22;17195;50.838;7.214;2023-04-16T06:13:09;8.80;99.90
30399;DHT22;17195;50.838;7.214;2023-04-16T06:15:35;8.90;99.90
30399;DHT22;17195;50.838;7.214;2023-04-16T06:18:00;8.80;99.90
30399;DHT22;17195;50.838;7.214;2023-04-16T06:20:26;8.80;99.90
30399;DHT22;17195;50.838;7.214;2023-04-16T06:22:51;8.80;99.90
30399;DHT22;17195;50.838;7.214;2023-04-16T06:25:17;8.80;99.90
30399;DHT22;17195;50.838;7.214;2023-04-16T06:27:42;8.90;99.90
30399;DHT22;17195;50.838;7.214;2023-04-16T06:30:14;8.90;99.90
30399;DHT22;17195;50.838;7.214;2023-04-16T06:32:41;8.90;99.90
30399;DHT22;17195;50.838;7.214;2023-04-16T06:35:07;9.00;99.90
30399;DHT22;17195;50.838;7.214;2023-04-16T06:37:33;9.00;99.90
30399;DHT22;17195;50.838;7.214;2023-04-16T06:39:58;9.10;99.90
30399;DHT22;17195;50.838;7.214;2023-04-16T06:42:24;9.00;99.90
30399;DHT22;17195;50.838;7.214;2023-04-16T06:44:49;9.00;99.90
30399;DHT22;17195;50.838;7.214;2023-04-16T06:47:15;9.00;99.90
30399;DHT22;17195;50.838;7.214;2023-04-16T06:49:40;9.00;99.90
30399;DHT22;17195;50.838;7.214;2023-04-16T06:52:06;9.00;99.90
30399;DHT22;17195;50.838;7.214;2023-04-16T06:54:32;9.00;99.90
30399;DHT22;17195;50.838;7.214;2023-04-16T06:56:57;9.10;99.90
30399;DHT22;17195;50.838;7.214;2023-04-16T06:59:23;9.10;99.90
30399;DHT22;17195;50.838;7.214;2023-04-16T07:01:48;9.10;99.90
30399;DHT22;17195;50.838;7.214;2023-04-16T07:04:14;9.10;99.90
30399;DHT22;17195;50.838;7.214;2023-04-16T07:06:39;9.10;99.90
30399;DHT22;17195;50.838;7.214;2023-04-16T07:09:05;9.10;99.90
30399;DHT22;17195;50.838;7.214;2023-04-16T07:11:31;9.00;99.90
30399;DHT22;17195;50.838;7.214;2023-04-16T07:13:56;9.00;99.90
30399;DHT22;17195;50.838;7.214;2023-04-16T07:16:23;9.00;99.90
30399;DHT22;17195;50.838;7.214;2023-04-16T07:18:48;9.00;99.90
30399;DHT22;17195;50.838;7.214;2023-04-16T07:21:14;9.10;99.90
30399;DHT22;17195;50.838;7.214;2023-04-16T07:23:40;9.10;99.90
30399;DHT22;17195;50.838;7.214;2023-04-16T07:26:05;9.10;99.90
30399;DHT22;17195;50.838;7.214;2023-04-16T07:28:31;9.10;99.90
30399;DHT22;17195;50.838;7.214;2023-04-16T07:30:56;9.20;99.90
30399;DHT22;17195;50.838;7.214;2023-04-16T07:33:22;9.20;99.90
30399;DHT22;17195;50.838;7.214;2023-04-16T07:35:48;9.20;99.90
30399;DHT22;17195;50.838;7.214;2023-04-16T07:38:14;9.10;99.90
30399;DHT22;17195;50.838;7.214;2023-04-16T07:40:40;9.10;99.90
30399;DHT22;17195;50.838;7.214;2023-04-16T07:43:06;9.00;99.90
30399;DHT22;17195;50.838;7.214;2023-04-16T07:45:31;9.00;99.90
30399;DHT22;17195;50.838;7.214;2023-04-16T07:47:57;9.10;99.90
30399;DHT22;17195;50.838;7.214;2023-04-16T07:50:22;9.10;99.90
30399;DHT22;17195;50.838;7.214;2023-04-16T07:52:48;9.10;99.90
30399;DHT22;17195;50.838;7.214;2023-04-16T07:55:14;9.20;99.90
30399;DHT22;17195;50.838;7.214;2023-04-16T07:57:40;9.20;99.90
30399;DHT22;17195;50.838;7.214;2023-04-16T08:00:07;9.20;99.90
30399;DHT22;17195;50.838;7.214;2023-04-16T08:02:32;9.30;99.90
30399;DHT22;17195;50.838;7.214;2023-04-16T08:04:58;9.40;99.90
30399;DHT22;17195;50.838;7.214;2023-04-16T08:07:24;9.40;99.90
30399;DHT22;17195;50.838;7.214;2023-04-16T08:09:51;9.50;99.90
30399;DHT22;17195;50.838;7.214;2023-04-16T08:12:17;9.60;99.90
30399;DHT22;17195;50.838;7.214;2023-04-16T08:14:43;9.60;99.90
30399;DHT22;17195;50.838;7.214;2023-04-16T08:17:11;9.70;99.90
30399;DHT22;17195;50.838;7.214;2023-04-16T08:19:36;9.80;99.90
30399;DHT22;17195;50.838;7.214;2023-04-16T08:22:02;9.90;99.90
30399;DHT22;17195;50.838;7.214;2023-04-16T08:24:27;9.90;99.90
30399;DHT22;17195;50.838;7.214;2023-04-16T08:26:53;10.00;99.90
30399;DHT22;17195;50.838;7.214;2023-04-16T08:29:18;10.00;99.90
30399;DHT22;17195;50.838;7.214;2023-04-16T08:31:45;10.00;99.90
30399;DHT22;17195;50.838;7.214;2023-04-16T08:34:10;10.00;99.90
30399;DHT22;17195;50.838;7.214;2023-04-16T08:36:36;10.00;99.90
30399;DHT22;17195;50.838;7.214;2023-04-16T08:39:02;10.10;99.90
30399;DHT22;17195;50.838;7.214;2023-04-16T08:41:30;10.30;99.90
30399;DHT22;17195;50.838;7.214;2023-04-16T08:43:59;10.40;99.90
30399;DHT22;17195;50.838;7.214;2023-04-16T08:46:25;10.50;99.90
30399;DHT22;17195;50.838;7.214;2023-04-16T08:48:53;10.40;99.90
30399;DHT22;17195;50.838;7.214;2023-04-16T08:51:21;10.40;99.90
30399;DHT22;17195;50.838;7.214;2023-04-16T08:53:51;10.30;99.90
30399;DHT22;17195;50.838;7.214;2023-04-16T08:56:19;10.30;99.90
30399;DHT22;17195;50.838;7.214;2023-04-16T08:58:46;10.40;99.90
30399;DHT22;17195;50.838;7.214;2023-04-16T09:01:13;10.50;99.90
30399;DHT22;17195;50.838;7.214;2023-04-16T09:03:40;10.50;99.90
30399;DHT22;17195;50.838;7.214;2023-04-16T09:06:06;10.60;99.90
30399;DHT22;17195;50.838;7.214;2023-04-16T09:08:33;10.60;99.90
30399;DHT22;17195;50.838;7.214;2023-04-16T09:11:00;10.70;99.90
30399;DHT22;17195;50.838;7.214;2023-04-16T09:13:26;10.70;99.90
30399;DHT22;17195;50.838;7.214;2023-04-16T09:15:52;10.70;99.90
30399;DHT22;17195;50.838;7.214;2023-04-16T09:18:18;10.70;99.90
30399;DHT22;17195;50.838;7.214;2023-04-16T09:20:48;10.80;99.90
30399;DHT22;17195;50.838;7.214;2023-04-16T09:23:13;11.00;99.90
30399;DHT22;17195;50.838;7.214;2023-04-16T09:25:39;11.20;99.90
30399;DHT22;17195;50.838;7.214;2023-04-16T09:28:05;11.40;99.90
30399;DHT22;17195;50.838;7.214;2023-04-16T09:30:30;11.60;99.90
30399;DHT22;17195;50.838;7.214;2023-04-16T09:33:17;11.60;99.90
30399;DHT22;17195;50.838;7.214;2023-04-16T09:35:50;11.60;99.90
30399;DHT22;17195;50.838;7.214;2023-04-16T09:38:17;11.60;99.90
30399;DHT22;17195;50.838;7.214;2023-04-16T09:40:42;11.50;99.90
30399;DHT22;17195;50.838;7.214;2023-04-16T09:43:16;11.50;99.90
30399;DHT22;17195;50.838;7.214;2023-04-16T09:45:48;11.50;99.90
30399;DHT22;17195;50.838;7.214;2023-04-16T09:48:15;11.40;99.90
30399;DHT22;17195;50.838;7.214;2023-04-16T09:50:50;11.30;99.90
30399;DHT22;17195;50.838;7.214;2023-04-16T09:53:23;11.10;99.90
30399;DHT22;17195;50.838;7.214;2023-04-16T09:55:50;11.20;99.90
30399;DHT22;17195;50.838;7.214;2023-04-16T09:58:18;11.20;99.90
30399;DHT22;17195;50.838;7.214;2023-04-16T10:00:44;11.30;99.90
30399;DHT22;17195;50.838;7.214;2023-04-16T10:03:10;11.30;99.90
30399;DHT22;17195;50.838;7.214;2023-04-16T10:05:35;11.50;99.90
30399;DHT22;17195;50.838;7.214;2023-04-16T10:08:01;11.60;99.90
30399;DHT22;17195;50.838;7.214;2023-04-16T10:10:27;11.70;99.90
30399;DHT22;17195;50.838;7.214;2023-04-16T10:12:54;11.80;99.90
30399;DHT22;17195;50.838;7.214;2023-04-16T10:15:20;11.80;99.90
30399;DHT22;17195;50.838;7.214;2023-04-16T10:17:46;11.80;99.90
30399;DHT22;17195;50.838;7.214;2023-04-16T10:20:13;11.70;99.90
30399;DHT22;17195;50.838;7.214;2023-04-16T10:22:40;11.70;99.90
30399;DHT22;17195;50.838;7.214;2023-04-16T10:25:06;11.60;99.90
30399;DHT22;17195;50.838;7.214;2023-04-16T10:27:32;11.60;99.90
30399;DHT22;17195;50.838;7.214;2023-04-16T10:29:58;11.70;99.90
30399;DHT22;17195;50.838;7.214;2023-04-16T10:32:25;11.80;99.90
30399;DHT22;17195;50.838;7.214;2023-04-16T10:34:53;11.90;99.90
30399;DHT22;17195;50.838;7.214;2023-04-16T10:37:28;11.90;99.90
30399;DHT22;17195;50.838;7.214;2023-04-16T10:39:54;12.00;99.90
30399;DHT22;17195;50.838;7.214;2023-04-16T10:42:20;12.10;99.90
30399;DHT22;17195;50.838;7.214;2023-04-16T10:44:46;12.10;99.90
30399;DHT22;17195;50.838;7.214;2023-04-16T10:47:12;12.30;99.90
30399;DHT22;17195;50.838;7.214;2023-04-16T10:49:38;12.20;99.90
30399;DHT22;17195;50.838;7.214;2023-04-16T10:52:13;12.40;99.90
30399;DHT22;17195;50.838;7.214;2023-04-16T10:54:41;12.50;99.90
30399;DHT22;17195;50.838;7.214;2023-04-16T10:57:18;12.50;99.90
30399;DHT22;17195;50.838;7.214;2023-04-16T10:59:45;12.50;99.90
30399;DHT22;17195;50.838;7.214;2023-04-16T11:02:14;12.40;99.90
30399;DHT22;17195;50.838;7.214;2023-04-16T11:04:45;12.20;99.90
30399;DHT22;17195;50.838;7.214;2023-04-16T11:14:58;11.90;99.90
30399;DHT22;17195;50.838;7.214;2023-04-16T11:17:32;11.90;99.90
30399;DHT22;17195;50.838;7.214;2023-04-16T11:19:58;12.10;99.90
30399;DHT22;17195;50.838;7.214;2023-04-16T11:22:23;12.10;99.90
30399;DHT22;17195;50.838;7.214;2023-04-16T11:24:56;12.20;99.90
30399;DHT22;17195;50.838;7.214;2023-04-16T11:27:24;12.30;99.90
30399;DHT22;17195;50.838;7.214;2023-04-16T11:29:56;12.20;99.90
30399;DHT22;17195;50.838;7.214;2023-04-16T11:32:22;12.00;99.90
30399;DHT22;17195;50.838;7.214;2023-04-16T11:34:48;12.10;99.90
30399;DHT22;17195;50.838;7.214;2023-04-16T11:37:14;12.10;99.90
30399;DHT22;17195;50.838;7.214;2023-04-16T11:39:50;12.10;99.90
30399;DHT22;17195;50.838;7.214;2023-04-16T11:42:21;12.30;99.90
30399;DHT22;17195;50.838;7.214;2023-04-16T11:44:55;12.60;99.90
30399;DHT22;17195;50.838;7.214;2023-04-16T11:47:25;13.00;99.90
30399;DHT22;17195;50.838;7.214;2023-04-16T11:49:50;13.50;99.90
30399;DHT22;17195;50.838;7.214;2023-04-16T11:52:30;13.80;99.90
30399;DHT22;17195;50.838;7.214;2023-04-16T11:54:56;13.90;99.90
30399;DHT22;17195;50.838;7.214;2023-04-16T11:57:26;14.00;99.90
30399;DHT22;17195;50.838;7.214;2023-04-16T11:59:53;14.00;99.90
30399;DHT22;17195;50.838;7.214;2023-04-16T12:02:33;13.80;99.90
30399;DHT22;17195;50.838;7.214;2023-04-16T12:04:59;13.80;99.90
30399;DHT22;17195;50.838;7.214;2023-04-16T12:07:25;13.90;99.90
30399;DHT22;17195;50.838;7.214;2023-04-16T12:10:04;14.10;99.90
30399;DHT22;17195;50.838;7.214;2023-04-16T12:12:31;14.20;99.90
30399;DHT22;17195;50.838;7.214;2023-04-16T12:14:56;14.20;99.90
30399;DHT22;17195;50.838;7.214;2023-04-16T12:17:24;14.00;99.90
30399;DHT22;17195;50.838;7.214;2023-04-16T12:20:01;13.90;99.90
30399;DHT22;17195;50.838;7.214;2023-04-16T12:22:35;13.90;99.90
30399;DHT22;17195;50.838;7.214;2023-04-16T12:25:06;14.00;99.90
30399;DHT22;17195;50.838;7.214;2023-04-16T12:27:51;14.10;99.90
30399;DHT22;17195;50.838;7.214;2023-04-16T12:30:18;14.10;99.90
30399;DHT22;17195;50.838;7.214;2023-04-16T12:32:50;14.00;99.90
30399;DHT22;17195;50.838;7.214;2023-04-16T12:35:32;13.90;99.90
30399;DHT22;17195;50.838;7.214;2023-04-16T12:37:59;13.80;99.90
30399;DHT22;17195;50.838;7.214;2023-04-16T12:40:24;13.70;99.90
30399;DHT22;17195;50.838;7.214;2023-04-16T12:42:50;13.80;99.90
30399;DHT22;17195;50.838;7.214;2023-04-16T12:45:16;13.80;99.90
30399;DHT22;17195;50.838;7.214;2023-04-16T12:47:41;13.90;99.90
30399;DHT22;17195;50.838;7.214;2023-04-16T12:50:07;14.10;99.90
30399;DHT22;17195;50.838;7.214;2023-04-16T12:52:33;14.40;99.90
30399;DHT22;17195;50.838;7.214;2023-04-16T12:55:01;14.70;99.90
30399;DHT22;17195;50.838;7.214;2023-04-16T12:57:27;14.90;99.90
30399;DHT22;17195;50.838;7.214;2023-04-16T12:59:56;15.00;99.90
30399;DHT22;17195;50.838;7.214;2023-04-16T13:02:23;15.30;99.90
30399;DHT22;17195;50.838;7.214;2023-04-16T13:04:49;15.50;99.90
30399;DHT22;17195;50.838;7.214;2023-04-16T13:07:15;15.50;99.90
30399;DHT22;17195;50.838;7.214;2023-04-16T13:09:41;15.50;99.90
30399;DHT22;17195;50.838;7.214;2023-04-16T13:12:07;15.40;99.90
30399;DHT22;17195;50.838;7.214;2023-04-16T13:14:32;15.30;99.90
30399;DHT22;17195;50.838;7.214;2023-04-16T13:16:58;15.30;99.90
30399;DHT22;17195;50.838;7.214;2023-04-16T13:19:23;15.30;99.90
30399;DHT22;17195;50.838;7.214;2023-04-16T13:21:49;15.20;99.90
30399;DHT22;17195;50.838;7.214;2023-04-16T13:24:15;15.20;99.90
30399;DHT22;17195;50.838;7.214;2023-04-16T13:26:40;15.10;99.90
30399;DHT22;17195;50.838;7.214;2023-04-16T13:29:07;15.10;99.90
30399;DHT22;17195;50.838;7.214;2023-04-16T13:31:32;15.00;99.90
30399;DHT22;17195;50.838;7.214;2023-04-16T13:33:58;15.10;99.90
30399;DHT22;17195;50.838;7.214;2023-04-16T13:36:24;15.20;99.90
30399;DHT22;17195;50.838;7.214;2023-04-16T13:38:50;15.30;99.90
30399;DHT22;17195;50.838;7.214;2023-04-16T13:41:15;15.30;99.90
30399;DHT22;17195;50.838;7.214;2023-04-16T13:43:41;15.40;99.90
30399;DHT22;17195;50.838;7.214;2023-04-16T13:46:06;15.60;99.90
30399;DHT22;17195;50.838;7.214;2023-04-16T13:48:32;15.40;99.90
30399;DHT22;17195;50.838;7.214;2023-04-16T13:50:57;15.20;99.90
30399;DHT22;17195;50.838;7.214;2023-04-16T13:53:23;15.00;99.90
30399;DHT22;17195;50.838;7.214;2023-04-16T13:55:48;14.80;99.90
30399;DHT22;17195;50.838;7.214;2023-04-16T13:58:15;14.70;99.90
30399;DHT22;17195;50.838;7.214;2023-04-16T14:00:41;14.80;99.90
30399;DHT22;17195;50.838;7.214;2023-04-16T14:03:07;14.80;99.90
30399;DHT22;17195;50.838;7.214;2023-04-16T14:05:32;14.90;99.90
30399;DHT22;17195;50.838;7.214;2023-04-16T14:07:58;15.00;99.90
30399;DHT22;17195;50.838;7.214;2023-04-16T14:10:23;15.00;99.90
30399;DHT22;17195;50.838;7.214;2023-04-16T14:12:49;15.10;99.90
30399;DHT22;17195;50.838;7.214;2023-04-16T14:15:15;15.20;99.90
30399;DHT22;17195;50.838;7.214;2023-04-16T14:17:42;15.40;99.90
30399;DHT22;17195;50.838;7.214;2023-04-16T14:20:09;15.50;99.90
30399;DHT22;17195;50.838;7.214;2023-04-16T14:22:35;15.50;99.90
30399;DHT22;17195;50.838;7.214;2023-04-16T14:25:00;15.50;99.90
30399;DHT22;17195;50.838;7.214;2023-04-16T14:27:27;15.50;99.90
30399;DHT22;17195;50.838;7.214;2023-04-16T14:29:53;15.30;99.90
30399;DHT22;17195;50.838;7.214;2023-04-16T14:32:18;15.10;99.90
30399;DHT22;17195;50.838;7.214;2023-04-16T14:34:44;14.90;99.90
30399;DHT22;17195;50.838;7.214;2023-04-16T14:37:10;14.80;99.90
30399;DHT22;17195;50.838;7.214;2023-04-16T14:39:36;14.90;99.90
30399;DHT22;17195;50.838;7.214;2023-04-16T14:42:04;14.80;99.90
30399;DHT22;17195;50.838;7.214;2023-04-16T14:44:31;14.70;99.90
30399;DHT22;17195;50.838;7.214;2023-04-16T14:46:56;14.80;99.90
30399;DHT22;17195;50.838;7.214;2023-04-16T14:49:22;14.70;99.90
30399;DHT22;17195;50.838;7.214;2023-04-16T14:51:47;14.70;99.90
30399;DHT22;17195;50.838;7.214;2023-04-16T14:54:13;14.80;99.90
30399;DHT22;17195;50.838;7.214;2023-04-16T14:56:39;14.80;99.90
30399;DHT22;17195;50.838;7.214;2023-04-16T14:59:05;14.90;99.90
30399;DHT22;17195;50.838;7.214;2023-04-16T15:01:32;14.80;99.90
30399;DHT22;17195;50.838;7.214;2023-04-16T15:03:58;14.80;99.90
30399;DHT22;17195;50.838;7.214;2023-04-16T15:06:24;14.80;99.90
30399;DHT22;17195;50.838;7.214;2023-04-16T15:08:49;14.90;99.90
30399;DHT22;17195;50.838;7.214;2023-04-16T15:11:15;14.70;99.90
30399;DHT22;17195;50.838;7.214;2023-04-16T15:13:40;14.60;99.90
30399;DHT22;17195;50.838;7.214;2023-04-16T15:16:06;14.50;99.90
30399;DHT22;17195;50.838;7.214;2023-04-16T15:18:32;14.50;99.90
30399;DHT22;17195;50.838;7.214;2023-04-16T15:20:57;14.40;99.90
30399;DHT22;17195;50.838;7.214;2023-04-16T15:23:23;14.40;99.90
30399;DHT22;17195;50.838;7.214;2023-04-16T15:25:48;14.30;99.90
30399;DHT22;17195;50.838;7.214;2023-04-16T15:28:14;14.40;99.90
30399;DHT22;17195;50.838;7.214;2023-04-16T15:30:40;14.60;99.90
30399;DHT22;17195;50.838;7.214;2023-04-16T15:33:06;14.60;99.90
30399;DHT22;17195;50.838;7.214;2023-04-16T15:35:33;14.70;99.90
30399;DHT22;17195;50.838;7.214;2023-04-16T15:37:59;14.70;99.90
30399;DHT22;17195;50.838;7.214;2023-04-16T15:40:25;14.60;99.90
30399;DHT22;17195;50.838;7.214;2023-04-16T15:42:50;14.40;99.90